Time;durP1;ratioP1;P1;durP2;ratioP2;P2;SDS_P1;SDS_P2;PMS_P1;PMS_P2;Temp;Humidity;BMP_temperature;BMP_pressure;BME280_temperature;BME280_humidity;BME280_pressure;Samples;Min_cycle;Max_cycle;Signal;HPM_P1;HPM_P2
2021/08/18 00:02:04;;;;;;;261.42;240.70;;;;;;;;;;5207335;27;20625;-88
2021/08/18 00:04:33;;;;;;;264.70;243.37;;;;;;;;;;5243771;27;20370;-86
2021/08/18 00:07:01;;;;;;;260.80;239.18;;;;;;;;;;5243754;27;20109;-86
2021/08/18 00:09:29;;;;;;;271.23;250.18;;;;;;;;;;5245241;27;20850;-86
2021/08/18 00:11:58;;;;;;;279.10;257.12;;;;;;;;;;5249630;27;20057;-86
2021/08/18 00:14:27;;;;;;;278.30;256.83;;;;;;;;;;5245589;27;20077;-87
2021/08/18 00:16:55;;;;;;;269.80;248.02;;;;;;;;;;5229731;27;20030;-85
2021/08/18 00:19:24;;;;;;;270.60;248.27;;;;;;;;;;5247171;27;20042;-87
2021/08/18 00:21:52;;;;;;;270.33;248.82;;;;;;;;;;5249687;27;20053;-86
2021/08/18 00:24:20;;;;;;;281.67;259.48;;;;;;;;;;5247740;27;20029;-86
2021/08/18 00:26:55;;;;;;;297.70;273.83;;;;;;;;;;5224941;27;20037;-86
2021/08/18 00:29:38;;;;;;;304.20;280.95;;;;;;;;;;5245053;27;20059;-86
2021/08/18 00:32:08;;;;;;;283.40;262.73;;;;;;;;;;5245746;27;20045;-87
2021/08/18 00:34:36;;;;;;;299.33;276.88;;;;;;;;;;5248198;27;20018;-86
2021/08/18 00:37:05;;;;;;;296.20;274.85;;;;;;;;;;5248711;27;20094;-85
2021/08/18 00:39:34;;;;;;;299.85;277.42;;;;;;;;;;5248300;27;20116;-87
2021/08/18 00:42:02;;;;;;;306.65;282.45;;;;;;;;;;5248509;27;20511;-86
2021/08/18 00:44:32;;;;;;;293.70;270.83;;;;;;;;;;5248861;27;20045;-86
2021/08/18 00:47:01;;;;;;;310.27;286.00;;;;;;;;;;5222557;27;20066;-86
2021/08/18 00:49:30;;;;;;;340.58;313.12;;;;;;;;;;5244573;27;20451;-86
2021/08/18 00:51:59;;;;;;;334.15;307.58;;;;;;;;;;5243359;27;20669;-87
2021/08/18 00:54:46;;;;;;;350.65;322.77;;;;;;;;;;5242654;27;20027;-88
2021/08/18 00:57:15;;;;;;;354.95;327.48;;;;;;;;;;5241820;27;20018;-86
2021/08/18 00:59:43;;;;;;;374.52;344.87;;;;;;;;;;5244663;27;20243;-86
2021/08/18 01:02:12;;;;;;;375.50;344.77;;;;;;;;;;5245125;27;20034;-86
2021/08/18 01:04:41;;;;;;;387.15;356.50;;;;;;;;;;5243006;27;20419;-87
2021/08/18 01:07:09;;;;;;;396.23;364.65;;;;;;;;;;5241626;27;20074;-86
2021/08/18 01:09:38;;;;;;;402.05;368.92;;;;;;;;;;5242032;27;20065;-86
2021/08/18 01:12:07;;;;;;;402.50;369.90;;;;;;;;;;5244918;27;20377;-86
2021/08/18 01:14:35;;;;;;;413.73;380.12;;;;;;;;;;5244967;27;20026;-85
2021/08/18 01:17:04;;;;;;;425.27;390.80;;;;;;;;;;5242809;27;20054;-86
2021/08/18 01:19:33;;;;;;;442.73;406.23;;;;;;;;;;5245932;27;20021;-87
2021/08/18 01:22:01;;;;;;;432.92;394.05;;;;;;;;;;5242398;27;20080;-86
2021/08/18 01:24:30;;;;;;;442.55;402.25;;;;;;;;;;5229510;27;20286;-86
2021/08/18 01:26:58;;;;;;;427.85;389.55;;;;;;;;;;5242470;27;20502;-86
2021/08/18 01:29:27;;;;;;;424.98;386.08;;;;;;;;;;5242605;27;20290;-86
2021/08/18 01:31:58;;;;;;;463.10;421.50;;;;;;;;;;5245080;27;20384;-87
2021/08/18 01:34:26;;;;;;;465.58;423.67;;;;;;;;;;5244935;27;20024;-86
2021/08/18 01:36:55;;;;;;;448.27;407.98;;;;;;;;;;5243698;27;20469;-85
2021/08/18 01:39:23;;;;;;;461.80;421.30;;;;;;;;;;5246119;27;20021;-86
2021/08/18 01:41:52;;;;;;;455.95;415.00;;;;;;;;;;5244993;27;20042;-86
2021/08/18 01:44:20;;;;;;;462.50;420.48;;;;;;;;;;5246656;27;20046;-86
2021/08/18 01:46:49;;;;;;;448.65;407.62;;;;;;;;;;5245686;27;20033;-86
2021/08/18 01:49:17;;;;;;;447.40;405.50;;;;;;;;;;5244459;27;20462;-86
2021/08/18 01:51:55;;;;;;;448.52;407.65;;;;;;;;;;5243997;27;20109;-87
2021/08/18 01:54:23;;;;;;;451.90;411.58;;;;;;;;;;5225164;27;20084;-86
2021/08/18 01:56:52;;;;;;;473.00;430.70;;;;;;;;;;5243031;27;20038;-86
2021/08/18 01:59:26;;;;;;;466.33;424.80;;;;;;;;;;5242463;27;21081;-86
2021/08/18 02:01:55;;;;;;;441.42;400.17;;;;;;;;;;5244129;27;20037;-86
2021/08/18 02:04:24;;;;;;;479.62;436.25;;;;;;;;;;5225248;27;20026;-86
2021/08/18 02:06:52;;;;;;;476.23;433.55;;;;;;;;;;5245464;27;20433;-87
2021/08/18 02:09:20;;;;;;;485.10;441.65;;;;;;;;;;5245156;27;20060;-86
2021/08/18 02:11:49;;;;;;;486.02;442.27;;;;;;;;;;5247564;27;20052;-86
2021/08/18 02:14:18;;;;;;;482.58;439.27;;;;;;;;;;5247132;27;20397;-87
2021/08/18 02:16:46;;;;;;;481.90;438.02;;;;;;;;;;5244868;27;20107;-85
2021/08/18 02:19:15;;;;;;;486.50;442.92;;;;;;;;;;5239192;27;20487;-85
2021/08/18 02:21:43;;;;;;;486.58;442.08;;;;;;;;;;5245051;27;20045;-86
2021/08/18 02:24:11;;;;;;;478.77;435.33;;;;;;;;;;5229486;27;20040;-86
2021/08/18 02:26:40;;;;;;;460.45;416.80;;;;;;;;;;5247666;27;20154;-87
2021/08/18 02:29:08;;;;;;;459.45;415.75;;;;;;;;;;5208790;27;20500;-86
2021/08/18 02:31:37;;;;;;;469.10;424.90;;;;;;;;;;5246943;27;20071;-86
2021/08/18 02:34:08;;;;;;;453.88;410.15;;;;;;;;;;5249417;27;20431;-86
2021/08/18 02:36:37;;;;;;;463.42;419.77;;;;;;;;;;5246099;27;20014;-85
2021/08/18 02:39:06;;;;;;;450.27;407.30;;;;;;;;;;5246743;27;20491;-86
2021/08/18 02:41:35;;;;;;;426.23;384.83;;;;;;;;;;5247114;27;20022;-85
2021/08/18 02:44:03;;;;;;;433.77;393.12;;;;;;;;;;5228509;27;20032;-87
2021/08/18 02:46:32;;;;;;;447.27;404.62;;;;;;;;;;5229583;27;20030;-86
2021/08/18 02:49:01;;;;;;;430.37;389.35;;;;;;;;;;5246409;27;20059;-87
2021/08/18 02:51:29;;;;;;;409.25;369.05;;;;;;;;;;5227191;27;20060;-86
2021/08/18 02:53:58;;;;;;;413.65;371.87;;;;;;;;;;5245601;27;20045;-86
2021/08/18 02:56:26;;;;;;;406.58;365.80;;;;;;;;;;5243869;27;20069;-86
2021/08/18 02:58:54;;;;;;;408.30;367.67;;;;;;;;;;5244635;27;20026;-85
2021/08/18 03:01:23;;;;;;;410.30;369.40;;;;;;;;;;5246925;27;20034;-86
2021/08/18 03:03:52;;;;;;;403.73;362.90;;;;;;;;;;5245923;27;20065;-86
2021/08/18 03:06:20;;;;;;;387.75;346.08;;;;;;;;;;5248441;27;20441;-88
2021/08/18 03:08:49;;;;;;;375.13;334.23;;;;;;;;;;5245511;27;20065;-87
2021/08/18 03:17:37;;;;;;;384.67;342.75;;;;;;;;;;5224852;27;20109;-87
2021/08/18 03:20:13;;;;;;;375.17;335.20;;;;;;;;;;5228111;27;20036;-87
2021/08/18 03:27:04;;;;;;;;;;;;;;;;;;;;;
2021/08/18 03:30:37;;;;;;;402.73;339.45;;;;;;;;;;5178964;27;20677;-88
2021/08/18 03:38:10;;;;;;;407.83;338.77;;;;;;;;;;5142753;27;20031;-87
2021/08/18 03:40:52;;;;;;;;;;;;;;;;;;;;;
2021/08/18 03:49:00;;;;;;;420.30;345.27;;;;;;;;;;5073493;28;20363;-89
2021/08/18 04:05:50;;;;;;;387.92;343.42;;;;;;;;;;5241384;27;20156;-87
2021/08/18 04:08:36;;;;;;;424.48;378.15;;;;;;;;;;5229816;27;20085;-88
2021/08/18 04:11:26;;;;;;;429.52;374.67;;;;;;;;;;5231034;27;20100;-89
2021/08/18 04:14:00;;;;;;;427.13;380.20;;;;;;;;;;5219828;27;20021;-86
2021/08/18 04:16:31;;;;;;;439.60;393.20;;;;;;;;;;5223286;27;20039;-88
2021/08/18 04:19:22;;;;;;;434.20;386.25;;;;;;;;;;5228188;27;20024;-87
2021/08/18 04:22:18;;;;;;;438.87;392.47;;;;;;;;;;5226519;27;20420;-90
2021/08/18 04:25:16;;;;;;;438.25;391.63;;;;;;;;;;5224032;27;20149;-89
2021/08/18 04:28:09;;;;;;;414.15;364.20;;;;;;;;;;5231286;27;20041;-91
2021/08/18 04:30:57;;;;;;;426.65;373.23;;;;;;;;;;5233084;27;20059;-87
2021/08/18 04:37:00;;;;;;;417.05;344.35;;;;;;;;;;5265571;27;20058;-87
2021/08/18 04:39:44;;;;;;;428.65;341.77;;;;;;;;;;5246232;27;20034;-87
2021/08/18 04:42:40;;;;;;;440.52;343.63;;;;;;;;;;5256039;27;20035;-87
2021/08/18 04:58:50;;;;;;;;;;;;;;;;;;;;;
2021/08/18 05:02:14;;;;;;;453.33;347.40;;;;;;;;;;5029773;28;20125;-87
2021/08/18 05:05:13;;;;;;;451.98;343.20;;;;;;;;;;5018226;28;20049;-87
2021/08/18 05:11:56;;;;;;;;;;;;;;;;;;5037305;28;20447;-87
2021/08/18 05:16:23;;;;;;;459.73;332.40;;;;;;;;;;5018551;28;20442;-88
2021/08/18 05:20:10;;;;;;;463.27;326.35;;;;;;;;;;5049481;28;20029;-89
2021/08/18 05:24:28;;;;;;;455.35;318.33;;;;;;;;;;5035994;28;20416;-91
2021/08/18 06:01:11;;;;;;;455.60;283.15;;;;;;;;;;5204951;27;20141;-90
2021/08/18 06:04:44;;;;;;;435.15;308.55;;;;;;;;;;5169576;27;20041;-91
2021/08/18 06:11:58;;;;;;;432.65;316.92;;;;;;;;;;5158144;27;20221;-91
2021/08/18 06:18:48;;;;;;;439.75;318.27;;;;;;;;;;5136433;27;20047;-88
2021/08/18 06:21:19;;;;;;;443.27;316.05;;;;;;;;;;5163271;27;20046;-87
2021/08/18 06:23:56;;;;;;;491.62;352.25;;;;;;;;;;5156674;27;20038;-84
2021/08/18 06:26:50;;;;;;;;;;;;;;;;;;;;;
2021/08/18 06:29:57;;;;;;;494.65;323.10;;;;;;;;;;5084104;27;20033;-87
2021/08/18 06:32:49;;;;;;;495.65;321.87;;;;;;;;;;5131136;27;20072;-88
2021/08/18 06:36:27;;;;;;;487.08;323.85;;;;;;;;;;5116661;27;20042;-93
2021/08/18 06:46:49;;;;;;;;;;;;;;;;;;;;;
2021/08/18 10:44:06;;;;;;;13.00;4.40;;;;;;;;;;5262071;27;20102;-86
2021/08/18 10:46:55;;;;;;;15.98;4.43;;;;;;;;;;5269017;27;20543;-86
2021/08/18 10:49:28;;;;;;;19.10;5.15;;;;;;;;;;5271172;27;20017;-86
2021/08/18 10:51:56;;;;;;;18.65;4.85;;;;;;;;;;5265824;27;20045;-86
2021/08/18 10:54:28;;;;;;;27.83;4.85;;;;;;;;;;5251332;27;20051;-86
2021/08/18 10:56:58;;;;;;;20.27;5.28;;;;;;;;;;5270784;27;20085;-86
2021/08/18 10:59:29;;;;;;;24.37;5.95;;;;;;;;;;5272233;27;20017;-85
2021/08/18 11:01:58;;;;;;;17.95;5.28;;;;;;;;;;5269233;27;20022;-86
2021/08/18 11:04:45;;;;;;;17.65;5.00;;;;;;;;;;5269632;27;20013;-86
2021/08/18 11:07:15;;;;;;;16.70;5.18;;;;;;;;;;5270563;27;20065;-84
2021/08/18 11:09:49;;;;;;;17.25;4.60;;;;;;;;;;5271442;27;20048;-85
2021/08/18 11:12:37;;;;;;;16.48;4.72;;;;;;;;;;5273002;27;20044;-85
2021/08/18 11:15:20;;;;;;;16.92;4.45;;;;;;;;;;5273228;27;20065;-85
2021/08/18 11:17:49;;;;;;;;;;;;;;;;;;5274560;27;20049;-85
2021/08/18 11:20:18;;;;;;;13.65;4.40;;;;;;;;;;5273022;27;20487;-85
2021/08/18 11:22:52;;;;;;;14.00;4.62;;;;;;;;;;5273309;27;20029;-85
2021/08/18 11:25:22;;;;;;;16.60;4.78;;;;;;;;;;5252436;27;20041;-85
2021/08/18 11:27:51;;;;;;;20.83;4.62;;;;;;;;;;5269147;27;20093;-86
2021/08/18 11:30:26;;;;;;;15.75;4.45;;;;;;;;;;5273183;27;20878;-85
2021/08/18 11:32:55;;;;;;;19.15;4.90;;;;;;;;;;5270592;27;20029;-85
2021/08/18 11:35:31;;;;;;;16.60;4.90;;;;;;;;;;5272240;27;20027;-86
2021/08/18 11:38:03;;;;;;;16.85;4.57;;;;;;;;;;5272301;27;20052;-85
2021/08/18 11:40:32;;;;;;;14.65;4.05;;;;;;;;;;5271316;27;20001;-85
2021/08/18 11:43:01;;;;;;;16.42;4.80;;;;;;;;;;5272628;27;20026;-85
2021/08/18 11:45:32;;;;;;;16.15;4.45;;;;;;;;;;5271215;27;20036;-85
2021/08/18 11:48:07;;;;;;;16.98;5.00;;;;;;;;;;5272478;27;20021;-85
2021/08/18 11:50:39;;;;;;;22.10;4.43;;;;;;;;;;5272097;27;20022;-85
2021/08/18 11:53:08;;;;;;;18.48;5.18;;;;;;;;;;5270946;27;20442;-84
2021/08/18 11:55:37;;;;;;;12.13;3.90;;;;;;;;;;5273382;27;20029;-85
2021/08/18 11:58:08;;;;;;;21.42;4.90;;;;;;;;;;5272215;27;20275;-86
2021/08/18 12:00:39;;;;;;;17.62;4.75;;;;;;;;;;5272445;27;20067;-86
2021/08/18 12:03:08;;;;;;;23.33;4.62;;;;;;;;;;5272092;27;20025;-86
2021/08/18 12:05:37;;;;;;;14.65;3.95;;;;;;;;;;5272795;27;20043;-86
2021/08/18 12:08:14;;;;;;;15.77;4.50;;;;;;;;;;5270218;27;20049;-85
2021/08/18 12:10:44;;;;;;;15.38;4.35;;;;;;;;;;5273564;27;20068;-86
2021/08/18 12:13:13;;;;;;;13.60;3.97;;;;;;;;;;5274412;27;20052;-87
2021/08/18 12:15:44;;;;;;;21.70;4.50;;;;;;;;;;5252316;27;20481;-86
2021/08/18 12:18:28;;;;;;;17.67;4.85;;;;;;;;;;5271853;27;20021;-86
2021/08/18 12:21:16;;;;;;;25.10;5.07;;;;;;;;;;5271302;27;20061;-86
2021/08/18 12:23:46;;;;;;;13.98;4.00;;;;;;;;;;5252185;27;20022;-86
2021/08/18 12:26:33;;;;;;;16.20;4.57;;;;;;;;;;5271894;27;20079;-87
2021/08/18 12:29:04;;;;;;;21.77;5.05;;;;;;;;;;5270381;27;20085;-86
2021/08/18 12:31:54;;;;;;;17.70;4.55;;;;;;;;;;5262333;27;20033;-86
2021/08/18 12:34:31;;;;;;;18.80;4.60;;;;;;;;;;5246714;27;20034;-88
2021/08/18 12:37:06;;;;;;;22.02;4.57;;;;;;;;;;5264618;27;20057;-89
2021/08/18 12:39:36;;;;;;;14.55;4.05;;;;;;;;;;5265828;27;20123;-88
2021/08/18 12:42:06;;;;;;;17.58;4.93;;;;;;;;;;5263626;27;20101;-87
2021/08/18 12:44:36;;;;;;;14.27;4.07;;;;;;;;;;5266584;27;20095;-86
2021/08/18 12:47:09;;;;;;;12.63;3.92;;;;;;;;;;5266645;27;20062;-86
2021/08/18 12:49:38;;;;;;;14.25;4.45;;;;;;;;;;5266497;27;20049;-86
2021/08/18 12:52:09;;;;;;;13.48;4.15;;;;;;;;;;5268252;27;20084;-86
2021/08/18 12:54:38;;;;;;;14.23;4.47;;;;;;;;;;5266262;27;20044;-86
2021/08/18 12:57:06;;;;;;;21.33;5.18;;;;;;;;;;5265952;27;20041;-86
2021/08/18 12:59:36;;;;;;;18.27;4.50;;;;;;;;;;5268163;27;20061;-85
2021/08/18 13:02:05;;;;;;;20.65;5.00;;;;;;;;;;5265544;27;20108;-86
2021/08/18 13:04:34;;;;;;;20.08;4.82;;;;;;;;;;5263137;27;20374;-87
2021/08/18 13:07:02;;;;;;;19.85;4.87;;;;;;;;;;5265439;27;20467;-86
2021/08/18 13:09:31;;;;;;;19.20;4.55;;;;;;;;;;5264987;27;20025;-86
2021/08/18 13:12:03;;;;;;;21.27;4.70;;;;;;;;;;5264904;27;20068;-86
2021/08/18 13:14:32;;;;;;;20.95;5.07;;;;;;;;;;5265409;27;20033;-85
2021/08/18 13:17:01;;;;;;;21.80;4.97;;;;;;;;;;5264445;27;20093;-85
2021/08/18 13:19:30;;;;;;;18.17;4.43;;;;;;;;;;5266635;27;20064;-86
2021/08/18 13:21:59;;;;;;;18.92;4.55;;;;;;;;;;5266187;27;20049;-86
2021/08/18 13:24:27;;;;;;;22.25;5.10;;;;;;;;;;5266692;27;20102;-86
2021/08/18 13:26:57;;;;;;;16.70;3.42;;;;;;;;;;5265824;27;20048;-86
2021/08/18 13:29:26;;;;;;;18.83;4.10;;;;;;;;;;5266178;27;20065;-86
2021/08/18 13:31:55;;;;;;;20.45;4.00;;;;;;;;;;5267319;27;20029;-85
2021/08/18 13:34:23;;;;;;;14.77;4.00;;;;;;;;;;5266153;27;20081;-87
2021/08/18 13:36:52;;;;;;;16.15;4.18;;;;;;;;;;5266804;27;20062;-86
2021/08/18 13:39:20;;;;;;;19.60;4.28;;;;;;;;;;5267536;27;20364;-85
2021/08/18 13:41:49;;;;;;;43.38;5.97;;;;;;;;;;5266158;27;20382;-86
2021/08/18 13:44:17;;;;;;;20.50;4.25;;;;;;;;;;5266291;27;20033;-86
2021/08/18 13:46:46;;;;;;;18.35;3.58;;;;;;;;;;5265718;27;20041;-87
2021/08/18 13:49:14;;;;;;;22.45;4.87;;;;;;;;;;5247343;27;20427;-86
2021/08/18 13:51:43;;;;;;;20.90;4.05;;;;;;;;;;5266250;27;20458;-86
2021/08/18 13:54:11;;;;;;;22.62;4.22;;;;;;;;;;5266682;27;20052;-86
2021/08/18 13:56:40;;;;;;;23.10;5.12;;;;;;;;;;5267495;27;20036;-86
2021/08/18 13:59:09;;;;;;;24.70;4.60;;;;;;;;;;5267634;27;20041;-86
2021/08/18 14:01:37;;;;;;;21.30;4.93;;;;;;;;;;5268548;27;20423;-86
2021/08/18 14:04:06;;;;;;;24.23;5.45;;;;;;;;;;5262609;27;20025;-86
2021/08/18 14:06:35;;;;;;;17.35;4.30;;;;;;;;;;5266807;27;20528;-85
2021/08/18 14:09:03;;;;;;;17.73;3.70;;;;;;;;;;5267529;27;20034;-85
2021/08/18 14:11:32;;;;;;;25.95;5.07;;;;;;;;;;5266250;27;20066;-85
2021/08/18 14:14:17;;;;;;;23.90;4.37;;;;;;;;;;5267365;27;20445;-86
2021/08/18 14:16:46;;;;;;;23.62;4.37;;;;;;;;;;5267435;27;20408;-86
2021/08/18 14:19:15;;;;;;;27.15;4.97;;;;;;;;;;5267327;27;20073;-86
2021/08/18 14:21:43;;;;;;;38.28;6.07;;;;;;;;;;5249832;27;20044;-86
2021/08/18 14:24:12;;;;;;;19.73;4.75;;;;;;;;;;5269064;27;20029;-87
2021/08/18 14:26:40;;;;;;;23.08;5.03;;;;;;;;;;5268512;27;20055;-86
2021/08/18 14:29:08;;;;;;;27.70;5.60;;;;;;;;;;5268032;27;20022;-86
2021/08/18 14:31:37;;;;;;;24.63;5.12;;;;;;;;;;5246938;27;20255;-86
2021/08/18 14:34:07;;;;;;;27.15;4.95;;;;;;;;;;5267866;27;20570;-86
2021/08/18 14:36:37;;;;;;;26.85;5.03;;;;;;;;;;5267514;27;20072;-86
2021/08/18 14:39:05;;;;;;;24.73;5.25;;;;;;;;;;5268372;27;20046;-86
2021/08/18 14:41:35;;;;;;;24.37;4.20;;;;;;;;;;5268262;27;20386;-85
2021/08/18 14:44:04;;;;;;;24.90;5.43;;;;;;;;;;5267391;27;20053;-86
2021/08/18 14:46:32;;;;;;;26.25;5.05;;;;;;;;;;5267559;27;20305;-86
2021/08/18 14:49:00;;;;;;;22.17;4.72;;;;;;;;;;5268302;27;20056;-86
2021/08/18 14:51:30;;;;;;;27.87;5.35;;;;;;;;;;5266936;27;20029;-86
2021/08/18 14:53:58;;;;;;;24.33;5.18;;;;;;;;;;5265857;27;20407;-86
2021/08/18 14:56:26;;;;;;;35.35;6.15;;;;;;;;;;5268598;27;20048;-87
2021/08/18 14:58:55;;;;;;;23.52;5.55;;;;;;;;;;5267432;27;20200;-86
2021/08/18 15:01:24;;;;;;;24.67;4.72;;;;;;;;;;5266530;27;20013;-86
2021/08/18 15:03:52;;;;;;;26.33;5.65;;;;;;;;;;5244824;27;20032;-86
2021/08/18 15:06:21;;;;;;;19.75;3.90;;;;;;;;;;5265766;27;20659;-87
2021/08/18 15:08:49;;;;;;;22.77;4.37;;;;;;;;;;5266730;27;20050;-87
2021/08/18 15:11:18;;;;;;;27.17;6.07;;;;;;;;;;5266395;27;20051;-86
2021/08/18 15:13:47;;;;;;;23.33;5.07;;;;;;;;;;5267506;27;20029;-87
2021/08/18 15:16:15;;;;;;;20.33;5.30;;;;;;;;;;5267920;27;20079;-86
2021/08/18 15:18:43;;;;;;;27.05;5.22;;;;;;;;;;5245306;27;20021;-86
2021/08/18 15:21:12;;;;;;;17.62;3.80;;;;;;;;;;5246550;27;20102;-86
2021/08/18 15:23:40;;;;;;;25.12;4.25;;;;;;;;;;5268622;27;20037;-87
2021/08/18 15:26:09;;;;;;;23.30;4.82;;;;;;;;;;5266230;27;20066;-86
2021/08/18 15:28:37;;;;;;;20.58;4.12;;;;;;;;;;5266762;27;20026;-86
2021/08/18 15:31:06;;;;;;;27.90;5.37;;;;;;;;;;5267590;27;20022;-86
2021/08/18 15:33:34;;;;;;;27.95;5.62;;;;;;;;;;5268055;27;20013;-86
2021/08/18 15:36:03;;;;;;;25.05;5.15;;;;;;;;;;5265072;27;20061;-86
2021/08/18 15:38:31;;;;;;;27.00;5.57;;;;;;;;;;5266391;27;20806;-87
2021/08/18 15:41:00;;;;;;;29.65;5.43;;;;;;;;;;5266968;27;20484;-86
2021/08/18 15:43:28;;;;;;;31.12;6.20;;;;;;;;;;5267574;27;20416;-86
2021/08/18 15:45:57;;;;;;;24.85;5.32;;;;;;;;;;5266939;27;20345;-86
2021/08/18 15:48:26;;;;;;;22.27;4.70;;;;;;;;;;5264914;27;20036;-86
2021/08/18 15:50:54;;;;;;;16.83;4.50;;;;;;;;;;5267462;27;20534;-86
2021/08/18 15:53:23;;;;;;;17.83;4.37;;;;;;;;;;5265284;27;20029;-87
2021/08/18 15:55:51;;;;;;;23.77;5.22;;;;;;;;;;5265990;27;20052;-87
2021/08/18 15:58:20;;;;;;;17.92;4.37;;;;;;;;;;5269827;27;20040;-87
2021/08/18 16:00:49;;;;;;;23.17;4.95;;;;;;;;;;5267315;27;20021;-86
2021/08/18 16:03:18;;;;;;;25.12;5.12;;;;;;;;;;5247760;27;20045;-85
2021/08/18 16:05:46;;;;;;;20.30;4.22;;;;;;;;;;5266771;27;20032;-86
2021/08/18 16:08:15;;;;;;;29.00;11.77;;;;;;;;;;5266593;27;20715;-86
2021/08/18 16:10:43;;;;;;;27.05;19.55;;;;;;;;;;5266035;27;20033;-85
2021/08/18 16:13:12;;;;;;;44.00;32.92;;;;;;;;;;5249190;27;20025;-86
2021/08/18 16:15:41;;;;;;;71.22;65.80;;;;;;;;;;5267193;27;20369;-86
2021/08/18 16:18:10;;;;;;;304.35;287.75;;;;;;;;;;5270194;27;20056;-87
2021/08/18 16:20:38;;;;;;;128.73;120.90;;;;;;;;;;5267454;27;20080;-86
2021/08/18 16:23:07;;;;;;;343.83;322.65;;;;;;;;;;5269112;27;20192;-86
2021/08/18 16:25:36;;;;;;;337.85;317.00;;;;;;;;;;5252526;27;20033;-86
2021/08/18 16:28:05;;;;;;;458.00;427.37;;;;;;;;;;5268266;27;20021;-88
2021/08/18 16:30:33;;;;;;;356.35;334.87;;;;;;;;;;5268417;27;20076;-85
2021/08/18 16:33:02;;;;;;;369.27;347.55;;;;;;;;;;5269665;27;20029;-87
2021/08/18 16:35:30;;;;;;;473.52;442.25;;;;;;;;;;5245693;27;20215;-87
2021/08/18 16:38:00;;;;;;;316.23;297.52;;;;;;;;;;5261113;27;20495;-86
2021/08/18 16:40:29;;;;;;;326.05;307.50;;;;;;;;;;5246680;27;20462;-86
2021/08/18 16:42:58;;;;;;;327.00;307.37;;;;;;;;;;5265836;27;20023;-86
2021/08/18 16:45:26;;;;;;;290.80;274.10;;;;;;;;;;5266148;27;20057;-86
2021/08/18 16:47:55;;;;;;;237.35;223.87;;;;;;;;;;5263226;27;20247;-86
2021/08/18 16:50:23;;;;;;;205.52;192.32;;;;;;;;;;5262023;27;20025;-86
2021/08/18 16:52:52;;;;;;;302.73;282.62;;;;;;;;;;5263635;27;20356;-86
2021/08/18 16:55:21;;;;;;;290.60;271.17;;;;;;;;;;5265967;27;20814;-85
2021/08/18 16:57:49;;;;;;;219.40;201.65;;;;;;;;;;5265726;27;20053;-86
2021/08/18 17:00:18;;;;;;;214.25;196.50;;;;;;;;;;5266080;27;20453;-86
2021/08/18 17:02:47;;;;;;;251.10;231.75;;;;;;;;;;5267240;27;20075;-86
2021/08/18 17:05:16;;;;;;;237.80;214.68;;;;;;;;;;5265172;27;20515;-87
2021/08/18 17:07:44;;;;;;;244.57;227.80;;;;;;;;;;5264015;27;20065;-86
2021/08/18 17:10:13;;;;;;;163.12;149.95;;;;;;;;;;5266345;27;20463;-86
2021/08/18 17:12:42;;;;;;;144.77;132.85;;;;;;;;;;5244254;27;20057;-86
2021/08/18 17:15:10;;;;;;;166.07;150.90;;;;;;;;;;5266994;27;20623;-86
2021/08/18 17:17:39;;;;;;;189.57;172.45;;;;;;;;;;5266977;27;20033;-87
2021/08/18 17:20:07;;;;;;;200.68;182.93;;;;;;;;;;5268051;27;20018;-88
2021/08/18 17:22:36;;;;;;;204.98;186.80;;;;;;;;;;5266171;27;20049;-88
2021/08/18 17:25:05;;;;;;;184.45;165.52;;;;;;;;;;5264719;27;20033;-89
2021/08/18 17:27:33;;;;;;;147.23;133.02;;;;;;;;;;5266825;27;20017;-87
2021/08/18 17:30:03;;;;;;;149.45;134.90;;;;;;;;;;5266985;27;20356;-87
2021/08/18 17:32:33;;;;;;;160.88;146.15;;;;;;;;;;5265228;27;20053;-87
2021/08/18 17:35:03;;;;;;;179.45;161.82;;;;;;;;;;5265018;27;20021;-87
2021/08/18 17:37:31;;;;;;;180.37;161.98;;;;;;;;;;5265584;27;20029;-87
2021/08/18 17:40:00;;;;;;;184.13;165.60;;;;;;;;;;5265342;27;20049;-88
2021/08/18 17:42:28;;;;;;;195.32;175.68;;;;;;;;;;5264790;27;20061;-88
2021/08/18 17:44:57;;;;;;;209.05;186.95;;;;;;;;;;5259172;27;20478;-88
2021/08/18 17:47:26;;;;;;;272.05;246.37;;;;;;;;;;5258594;27;20050;-89
2021/08/18 17:49:54;;;;;;;294.00;267.30;;;;;;;;;;5257371;27;20140;-86
2021/08/18 17:52:23;;;;;;;316.70;286.10;;;;;;;;;;5253510;27;20048;-86
2021/08/18 17:54:52;;;;;;;316.48;285.30;;;;;;;;;;5253267;27;20034;-86
2021/08/18 17:57:20;;;;;;;337.42;300.85;;;;;;;;;;5255240;27;20037;-85
2021/08/18 17:59:49;;;;;;;347.20;309.48;;;;;;;;;;5259665;27;20037;-85
2021/08/18 18:02:17;;;;;;;342.10;295.10;;;;;;;;;;5266045;27;20018;-85
2021/08/18 18:04:47;;;;;;;440.10;316.70;;;;;;;;;;5264213;27;20076;-86
2021/08/18 18:07:15;;;;;;;477.85;331.33;;;;;;;;;;5242437;27;20042;-86
2021/08/18 18:09:43;;;;;;;413.33;306.33;;;;;;;;;;5243484;27;20040;-86
2021/08/18 18:12:12;;;;;;;427.30;328.77;;;;;;;;;;5243098;27;20497;-86
2021/08/18 18:14:41;;;;;;;431.20;324.27;;;;;;;;;;5238272;27;20456;-85
2021/08/18 18:17:10;;;;;;;434.77;322.42;;;;;;;;;;5257516;27;20053;-86
2021/08/18 18:19:38;;;;;;;429.30;282.27;;;;;;;;;;5263719;27;20030;-86
2021/08/18 18:22:07;;;;;;;437.73;299.58;;;;;;;;;;5266466;27;20722;-86
2021/08/18 18:24:35;;;;;;;511.55;324.08;;;;;;;;;;5262760;27;20083;-85
2021/08/18 18:27:04;;;;;;;426.80;285.25;;;;;;;;;;5265655;27;20376;-87
2021/08/18 18:29:32;;;;;;;417.60;286.30;;;;;;;;;;5243998;27;20033;-86
2021/08/18 18:32:01;;;;;;;427.33;292.40;;;;;;;;;;5265839;27;20635;-85
2021/08/18 18:34:29;;;;;;;480.60;309.48;;;;;;;;;;5248333;27;20048;-85
2021/08/18 18:36:58;;;;;;;438.37;277.67;;;;;;;;;;5268667;27;20017;-83
2021/08/18 18:39:26;;;;;;;523.97;322.63;;;;;;;;;;5267659;27;20231;-85
2021/08/18 18:41:55;;;;;;;526.15;324.92;;;;;;;;;;5265392;27;20559;-85
2021/08/18 18:44:23;;;;;;;465.35;308.52;;;;;;;;;;5267125;27;20030;-85
2021/08/18 18:46:51;;;;;;;464.63;299.20;;;;;;;;;;5265437;27;20032;-84
2021/08/18 18:49:20;;;;;;;472.63;336.70;;;;;;;;;;5267280;27;20029;-85
2021/08/18 18:51:49;;;;;;;502.10;312.73;;;;;;;;;;5266977;27;20021;-85
2021/08/18 18:54:17;;;;;;;564.42;331.77;;;;;;;;;;5267465;27;20072;-84
2021/08/18 18:56:46;;;;;;;558.53;331.83;;;;;;;;;;5267294;27;20068;-85
2021/08/18 18:59:15;;;;;;;539.85;325.73;;;;;;;;;;5267092;27;20575;-84
2021/08/18 19:01:43;;;;;;;564.13;332.27;;;;;;;;;;5264910;27;20037;-84
2021/08/18 19:04:13;;;;;;;498.35;309.83;;;;;;;;;;5248455;27;20056;-85
2021/08/18 19:06:41;;;;;;;482.38;299.08;;;;;;;;;;5267496;27;20032;-84
2021/08/18 19:09:10;;;;;;;473.27;290.90;;;;;;;;;;5246745;27;20416;-85
2021/08/18 19:11:39;;;;;;;461.25;264.92;;;;;;;;;;5248447;27;20345;-84
2021/08/18 19:14:07;;;;;;;432.17;255.52;;;;;;;;;;5267580;27;20049;-87
2021/08/18 19:16:38;;;;;;;519.58;309.15;;;;;;;;;;5266503;27;20387;-84
2021/08/18 19:19:07;;;;;;;521.75;309.15;;;;;;;;;;5267705;27;20853;-86
2021/08/18 19:21:35;;;;;;;531.33;315.52;;;;;;;;;;5268300;27;20021;-85
2021/08/18 19:24:04;;;;;;;509.48;302.70;;;;;;;;;;5249953;27;20026;-85
2021/08/18 19:26:34;;;;;;;508.48;306.45;;;;;;;;;;5267278;27;20084;-84
2021/08/18 19:29:02;;;;;;;504.38;303.10;;;;;;;;;;5268710;27;20067;-85
2021/08/18 19:31:44;;;;;;;505.00;301.40;;;;;;;;;;5266376;27;20021;-85
2021/08/18 19:34:13;;;;;;;495.25;294.42;;;;;;;;;;5268473;27;20030;-86
2021/08/18 19:36:41;;;;;;;499.17;296.08;;;;;;;;;;5266944;27;20033;-84
2021/08/18 19:39:11;;;;;;;507.23;297.70;;;;;;;;;;5268621;27;20227;-85
2021/08/18 19:41:40;;;;;;;392.40;227.80;;;;;;;;;;5249329;27;20146;-84
2021/08/18 19:44:08;;;;;;;395.42;227.43;;;;;;;;;;5267178;27;20022;-85
2021/08/18 19:46:37;;;;;;;401.10;237.68;;;;;;;;;;5268150;27;20068;-85
2021/08/18 19:49:06;;;;;;;419.65;234.52;;;;;;;;;;5248594;27;20068;-84
2021/08/18 19:51:35;;;;;;;436.88;238.90;;;;;;;;;;5267588;27;20053;-85
2021/08/18 19:54:04;;;;;;;509.48;291.20;;;;;;;;;;5267052;27;20541;-85
2021/08/18 19:56:33;;;;;;;510.73;291.48;;;;;;;;;;5265590;27;20523;-87
2021/08/18 19:59:01;;;;;;;458.58;299.73;;;;;;;;;;5266904;27;20347;-87
2021/08/18 20:01:30;;;;;;;477.20;305.70;;;;;;;;;;5267970;27;20014;-86
2021/08/18 20:04:00;;;;;;;457.75;309.48;;;;;;;;;;5246179;27;20076;-87
2021/08/18 20:06:29;;;;;;;467.25;309.67;;;;;;;;;;5268745;27;20037;-87
2021/08/18 20:08:57;;;;;;;458.23;306.13;;;;;;;;;;5266572;27;20059;-87
2021/08/18 20:11:26;;;;;;;473.20;306.55;;;;;;;;;;5267953;27;20033;-88
2021/08/18 20:13:55;;;;;;;517.80;293.02;;;;;;;;;;5264877;27;20061;-87
2021/08/18 20:16:23;;;;;;;507.77;299.60;;;;;;;;;;5266682;27;20115;-87
2021/08/18 20:18:52;;;;;;;421.98;241.57;;;;;;;;;;5265341;27;20102;-84
2021/08/18 20:21:21;;;;;;;457.42;244.40;;;;;;;;;;5267096;27;20498;-85
2021/08/18 20:23:49;;;;;;;436.05;241.57;;;;;;;;;;5267146;27;20021;-85